Warwick, United Kingdom
Current Conditions -  °F | °C
As of 5:50 PM on Wednesday 28 Jan 2015 (Local Time) from EGBE Reporting Station
Few Clouds Few Clouds  
Wind Chill: 30°   Ceiling: Unl
Heat Index: 39°   Visibility: 6mi
Dew Point: 27°   Wind: 17mph
Humidity: 61%   Direction: 260°W
Pressure: 29.53"   Gusts: NA
Location:  52.28°N, 1.58°W
Report Text: EGBE 281750Z 26015KT 9999 FEW042 04/M03 Q1000
Loading
Personal Weather Stations






























Interactive Weather Map New forecast layout! Learn more

10-Day Weather Forecast

Advertisements
Track Severe Weather on mobile